sensor_id;sensor_type;location;lat;lon;timestamp;temperature;humidity
47576;DHT22;33304;52.456;13.328;2023-03-02T14:27:08;17.40;1.00
47576;DHT22;33304;52.456;13.328;2023-03-02T14:29:36;17.50;1.00
47576;DHT22;33304;52.456;13.328;2023-03-02T14:32:04;17.30;1.00
47576;DHT22;33304;52.456;13.328;2023-03-02T14:34:32;17.40;1.00
47576;DHT22;33304;52.456;13.328;2023-03-02T14:37:03;17.20;1.00
47576;DHT22;33304;52.456;13.328;2023-03-02T14:39:33;17.20;1.00
47576;DHT22;33304;52.456;13.328;2023-03-02T14:42:02;17.30;1.00
47576;DHT22;33304;52.456;13.328;2023-03-02T14:44:31;17.60;1.00
47576;DHT22;33304;52.456;13.328;2023-03-02T14:46:58;17.70;1.00
47576;DHT22;33304;52.456;13.328;2023-03-02T14:49:25;17.90;1.00
47576;DHT22;33304;52.456;13.328;2023-03-02T14:51:56;18.10;1.00
47576;DHT22;33304;52.456;13.328;2023-03-02T14:54:24;17.20;1.00
47576;DHT22;33304;52.456;13.328;2023-03-02T14:56:52;16.80;1.00
47576;DHT22;33304;52.456;13.328;2023-03-02T14:59:19;16.80;1.00
47576;DHT22;33304;52.456;13.328;2023-03-02T15:01:47;16.70;1.00
47576;DHT22;33304;52.456;13.328;2023-03-02T15:04:14;16.30;1.00
47576;DHT22;33304;52.456;13.328;2023-03-02T15:06:42;16.30;1.00
47576;DHT22;33304;52.456;13.328;2023-03-02T15:09:10;15.30;1.00
47576;DHT22;33304;52.456;13.328;2023-03-02T15:11:37;15.20;1.00
47576;DHT22;33304;52.456;13.328;2023-03-02T15:14:04;14.90;1.00
47576;DHT22;33304;52.456;13.328;2023-03-02T15:16:34;14.50;1.00
47576;DHT22;33304;52.456;13.328;2023-03-02T15:19:02;14.50;1.00
47576;DHT22;33304;52.456;13.328;2023-03-02T15:21:29;14.50;1.00
47576;DHT22;33304;52.456;13.328;2023-03-02T15:23:56;14.50;1.00
47576;DHT22;33304;52.456;13.328;2023-03-02T15:26:24;14.70;1.00
47576;DHT22;33304;52.456;13.328;2023-03-02T15:28:51;14.00;1.20
47576;DHT22;33304;52.456;13.328;2023-03-02T15:31:18;14.00;1.70
47576;DHT22;33304;52.456;13.328;2023-03-02T15:33:46;13.80;1.50
47576;DHT22;33304;52.456;13.328;2023-03-02T15:36:17;13.60;2.10
47576;DHT22;33304;52.456;13.328;2023-03-02T15:38:47;13.30;2.40
47576;DHT22;33304;52.456;13.328;2023-03-02T15:41:15;12.90;1.90
47576;DHT22;33304;52.456;13.328;2023-03-02T15:43:42;12.60;4.20
47576;DHT22;33304;52.456;13.328;2023-03-02T15:46:10;12.20;3.90
47576;DHT22;33304;52.456;13.328;2023-03-02T15:48:37;11.10;6.30
47576;DHT22;33304;52.456;13.328;2023-03-02T15:51:06;10.50;7.50
47576;DHT22;33304;52.456;13.328;2023-03-02T15:53:36;9.70;10.10
47576;DHT22;33304;52.456;13.328;2023-03-02T15:56:04;9.00;12.40
47576;DHT22;33304;52.456;13.328;2023-03-02T15:58:32;8.80;12.90
47576;DHT22;33304;52.456;13.328;2023-03-02T16:00:59;8.50;13.60
47576;DHT22;33304;52.456;13.328;2023-03-02T16:03:26;8.20;14.30
47576;DHT22;33304;52.456;13.328;2023-03-02T16:05:56;7.80;15.60
47576;DHT22;33304;52.456;13.328;2023-03-02T16:08:23;7.50;16.80
47576;DHT22;33304;52.456;13.328;2023-03-02T16:10:56;7.30;17.50
47576;DHT22;33304;52.456;13.328;2023-03-02T16:13:23;7.10;18.00
47576;DHT22;33304;52.456;13.328;2023-03-02T16:15:51;6.90;18.50
47576;DHT22;33304;52.456;13.328;2023-03-02T16:18:18;6.80;19.70
47576;DHT22;33304;52.456;13.328;2023-03-02T16:20:45;6.70;20.60
47576;DHT22;33304;52.456;13.328;2023-03-02T16:23:12;6.60;21.10
47576;DHT22;33304;52.456;13.328;2023-03-02T16:25:42;6.40;20.40
47576;DHT22;33304;52.456;13.328;2023-03-02T16:28:10;6.30;20.30
47576;DHT22;33304;52.456;13.328;2023-03-02T16:30:39;6.10;21.10
47576;DHT22;33304;52.456;13.328;2023-03-02T16:33:10;6.10;21.80
47576;DHT22;33304;52.456;13.328;2023-03-02T16:35:37;5.90;22.20
47576;DHT22;33304;52.456;13.328;2023-03-02T16:38:05;5.80;22.70
47576;DHT22;33304;52.456;13.328;2023-03-02T16:40:34;5.70;22.60
47576;DHT22;33304;52.456;13.328;2023-03-02T16:43:01;5.60;23.60
47576;DHT22;33304;52.456;13.328;2023-03-02T16:45:32;5.30;24.00
47576;DHT22;33304;52.456;13.328;2023-03-02T16:47:59;5.20;24.80
47576;DHT22;33304;52.456;13.328;2023-03-02T16:50:26;5.10;25.10
47576;DHT22;33304;52.456;13.328;2023-03-02T16:52:53;5.00;25.70
47576;DHT22;33304;52.456;13.328;2023-03-02T16:55:21;5.00;25.40
47576;DHT22;33304;52.456;13.328;2023-03-02T16:57:48;4.90;26.20
47576;DHT22;33304;52.456;13.328;2023-03-02T17:00:17;4.70;26.60
47576;DHT22;33304;52.456;13.328;2023-03-02T17:02:46;4.70;27.20
47576;DHT22;33304;52.456;13.328;2023-03-02T17:05:16;4.60;27.60
47576;DHT22;33304;52.456;13.328;2023-03-02T17:07:44;4.60;27.90
47576;DHT22;33304;52.456;13.328;2023-03-02T17:10:14;4.70;28.80
47576;DHT22;33304;52.456;13.328;2023-03-02T17:12:41;4.60;28.50
47576;DHT22;33304;52.456;13.328;2023-03-02T17:15:09;4.60;28.50
47576;DHT22;33304;52.456;13.328;2023-03-02T17:17:39;4.60;28.50
47576;DHT22;33304;52.456;13.328;2023-03-02T17:20:10;4.60;28.50
47576;DHT22;33304;52.456;13.328;2023-03-02T17:22:37;4.50;28.40
47576;DHT22;33304;52.456;13.328;2023-03-02T17:25:05;4.40;28.40
47576;DHT22;33304;52.456;13.328;2023-03-02T17:27:32;4.40;28.40
47576;DHT22;33304;52.456;13.328;2023-03-02T17:29:59;4.20;29.40
47576;DHT22;33304;52.456;13.328;2023-03-02T17:32:26;4.20;29.50
47576;DHT22;33304;52.456;13.328;2023-03-02T17:34:53;4.10;30.10
47576;DHT22;33304;52.456;13.328;2023-03-02T17:37:22;4.10;30.00
47576;DHT22;33304;52.456;13.328;2023-03-02T17:39:51;4.00;30.20
47576;DHT22;33304;52.456;13.328;2023-03-02T17:42:18;4.00;30.40
47576;DHT22;33304;52.456;13.328;2023-03-02T17:44:45;3.90;30.90
47576;DHT22;33304;52.456;13.328;2023-03-02T17:47:14;3.90;31.20
47576;DHT22;33304;52.456;13.328;2023-03-02T17:49:41;3.80;30.90
47576;DHT22;33304;52.456;13.328;2023-03-02T17:52:10;3.80;31.70
47576;DHT22;33304;52.456;13.328;2023-03-02T17:54:38;3.80;32.10
47576;DHT22;33304;52.456;13.328;2023-03-02T17:57:06;3.60;31.80
47576;DHT22;33304;52.456;13.328;2023-03-02T18:00:14;3.30;33.40
47576;DHT22;33304;52.456;13.328;2023-03-02T18:02:45;3.40;34.40
47576;DHT22;33304;52.456;13.328;2023-03-02T18:05:13;3.40;34.90
47576;DHT22;33304;52.456;13.328;2023-03-02T18:07:40;3.50;34.60
47576;DHT22;33304;52.456;13.328;2023-03-02T18:10:09;3.50;34.50
47576;DHT22;33304;52.456;13.328;2023-03-02T18:12:36;3.50;34.60
47576;DHT22;33304;52.456;13.328;2023-03-02T18:15:04;3.50;34.70
47576;DHT22;33304;52.456;13.328;2023-03-02T18:17:32;3.50;35.00
47576;DHT22;33304;52.456;13.328;2023-03-02T18:19:59;3.50;35.00
47576;DHT22;33304;52.456;13.328;2023-03-02T18:22:26;3.50;35.10
47576;DHT22;33304;52.456;13.328;2023-03-02T18:24:53;3.50;35.10
47576;DHT22;33304;52.456;13.328;2023-03-02T18:27:22;3.50;35.30
47576;DHT22;33304;52.456;13.328;2023-03-02T18:29:49;3.50;35.40
47576;DHT22;33304;52.456;13.328;2023-03-02T18:32:16;3.60;35.30
47576;DHT22;33304;52.456;13.328;2023-03-02T18:34:43;3.60;34.50
47576;DHT22;33304;52.456;13.328;2023-03-02T18:37:10;3.60;34.80
47576;DHT22;33304;52.456;13.328;2023-03-02T18:39:37;3.50;34.50
47576;DHT22;33304;52.456;13.328;2023-03-02T18:42:05;3.50;36.00
47576;DHT22;33304;52.456;13.328;2023-03-02T18:44:33;3.40;36.00
47576;DHT22;33304;52.456;13.328;2023-03-02T18:47:01;3.40;36.60
47576;DHT22;33304;52.456;13.328;2023-03-02T18:49:28;3.50;36.30
47576;DHT22;33304;52.456;13.328;2023-03-02T18:51:55;3.40;36.10
47576;DHT22;33304;52.456;13.328;2023-03-02T18:54:22;3.40;36.30
47576;DHT22;33304;52.456;13.328;2023-03-02T18:56:50;3.40;36.70
47576;DHT22;33304;52.456;13.328;2023-03-02T18:59:17;3.40;37.30
47576;DHT22;33304;52.456;13.328;2023-03-02T19:01:45;3.40;37.20
47576;DHT22;33304;52.456;13.328;2023-03-02T19:04:13;3.40;37.10
47576;DHT22;33304;52.456;13.328;2023-03-02T19:06:41;3.30;38.30
47576;DHT22;33304;52.456;13.328;2023-03-02T19:09:08;3.40;37.50
47576;DHT22;33304;52.456;13.328;2023-03-02T19:11:35;3.40;37.10
47576;DHT22;33304;52.456;13.328;2023-03-02T19:14:03;3.40;37.30
47576;DHT22;33304;52.456;13.328;2023-03-02T19:16:30;3.30;37.70
47576;DHT22;33304;52.456;13.328;2023-03-02T19:18:58;3.30;38.10
47576;DHT22;33304;52.456;13.328;2023-03-02T19:21:25;3.20;38.40
47576;DHT22;33304;52.456;13.328;2023-03-02T19:23:52;3.10;38.30
47576;DHT22;33304;52.456;13.328;2023-03-02T19:26:20;3.10;38.30
47576;DHT22;33304;52.456;13.328;2023-03-02T19:28:47;3.10;38.30
47576;DHT22;33304;52.456;13.328;2023-03-02T19:31:14;3.00;38.60
47576;DHT22;33304;52.456;13.328;2023-03-02T19:33:41;3.10;38.60
47576;DHT22;33304;52.456;13.328;2023-03-02T19:36:11;3.10;39.30
47576;DHT22;33304;52.456;13.328;2023-03-02T19:38:39;3.00;39.20
47576;DHT22;33304;52.456;13.328;2023-03-02T19:41:10;3.10;39.50
47576;DHT22;33304;52.456;13.328;2023-03-02T19:43:37;3.00;39.50
47576;DHT22;33304;52.456;13.328;2023-03-02T19:46:05;2.90;40.40
47576;DHT22;33304;52.456;13.328;2023-03-02T19:48:32;2.80;41.40
47576;DHT22;33304;52.456;13.328;2023-03-02T19:51:00;2.80;42.40
47576;DHT22;33304;52.456;13.328;2023-03-02T19:53:31;2.80;41.90
47576;DHT22;33304;52.456;13.328;2023-03-02T19:55:59;2.90;42.20
47576;DHT22;33304;52.456;13.328;2023-03-02T19:58:26;2.90;41.90
47576;DHT22;33304;52.456;13.328;2023-03-02T20:00:53;2.80;41.50
47576;DHT22;33304;52.456;13.328;2023-03-02T20:03:20;2.80;42.10
47576;DHT22;33304;52.456;13.328;2023-03-02T20:05:47;2.90;41.60
47576;DHT22;33304;52.456;13.328;2023-03-02T20:08:15;2.90;42.00
47576;DHT22;33304;52.456;13.328;2023-03-02T20:10:45;2.80;41.70
47576;DHT22;33304;52.456;13.328;2023-03-02T20:13:15;2.70;43.00
47576;DHT22;33304;52.456;13.328;2023-03-02T20:15:44;2.60;43.10
47576;DHT22;33304;52.456;13.328;2023-03-02T20:18:13;2.40;45.70
47576;DHT22;33304;52.456;13.328;2023-03-02T20:20:41;2.50;46.70
47576;DHT22;33304;52.456;13.328;2023-03-02T20:23:10;2.50;46.60
47576;DHT22;33304;52.456;13.328;2023-03-02T20:25:37;2.70;46.50
47576;DHT22;33304;52.456;13.328;2023-03-02T20:28:06;2.70;46.20
47576;DHT22;33304;52.456;13.328;2023-03-02T20:30:40;2.80;46.80
47576;DHT22;33304;52.456;13.328;2023-03-02T20:33:07;2.80;45.60
47576;DHT22;33304;52.456;13.328;2023-03-02T20:35:37;2.80;44.20
47576;DHT22;33304;52.456;13.328;2023-03-02T20:38:07;2.80;44.40
47576;DHT22;33304;52.456;13.328;2023-03-02T20:40:35;2.60;44.80
47576;DHT22;33304;52.456;13.328;2023-03-02T20:43:03;2.60;45.60
47576;DHT22;33304;52.456;13.328;2023-03-02T20:45:32;2.60;45.20
47576;DHT22;33304;52.456;13.328;2023-03-02T20:48:00;2.50;46.00
47576;DHT22;33304;52.456;13.328;2023-03-02T20:50:29;2.50;47.10
47576;DHT22;33304;52.456;13.328;2023-03-02T20:52:57;2.50;46.70
47576;DHT22;33304;52.456;13.328;2023-03-02T20:55:25;2.40;46.60
47576;DHT22;33304;52.456;13.328;2023-03-02T20:57:52;2.40;47.20
47576;DHT22;33304;52.456;13.328;2023-03-02T21:00:22;2.40;47.50
47576;DHT22;33304;52.456;13.328;2023-03-02T21:02:51;2.40;47.30
47576;DHT22;33304;52.456;13.328;2023-03-02T21:05:19;2.30;46.90
47576;DHT22;33304;52.456;13.328;2023-03-02T21:07:47;2.30;48.80
47576;DHT22;33304;52.456;13.328;2023-03-02T21:10:17;2.40;48.90
47576;DHT22;33304;52.456;13.328;2023-03-02T21:12:44;2.30;48.80
47576;DHT22;33304;52.456;13.328;2023-03-02T21:15:14;2.20;48.70
47576;DHT22;33304;52.456;13.328;2023-03-02T21:17:43;2.10;48.70
47576;DHT22;33304;52.456;13.328;2023-03-02T21:20:12;2.10;49.60
47576;DHT22;33304;52.456;13.328;2023-03-02T21:22:43;2.10;50.90
47576;DHT22;33304;52.456;13.328;2023-03-02T21:25:10;2.00;51.20
47576;DHT22;33304;52.456;13.328;2023-03-02T21:27:38;2.20;52.60
47576;DHT22;33304;52.456;13.328;2023-03-02T21:30:08;2.10;52.20
47576;DHT22;33304;52.456;13.328;2023-03-02T21:32:35;2.10;52.90
47576;DHT22;33304;52.456;13.328;2023-03-02T21:35:02;2.10;53.50
47576;DHT22;33304;52.456;13.328;2023-03-02T21:37:31;2.20;53.70
47576;DHT22;33304;52.456;13.328;2023-03-02T21:39:58;2.10;51.60
47576;DHT22;33304;52.456;13.328;2023-03-02T21:42:25;2.00;53.20
47576;DHT22;33304;52.456;13.328;2023-03-02T21:44:52;2.00;54.10
47576;DHT22;33304;52.456;13.328;2023-03-02T21:47:20;2.10;54.60
47576;DHT22;33304;52.456;13.328;2023-03-02T21:49:47;2.10;54.10
47576;DHT22;33304;52.456;13.328;2023-03-02T21:52:14;2.10;54.10
47576;DHT22;33304;52.456;13.328;2023-03-02T21:54:42;2.10;54.10
47576;DHT22;33304;52.456;13.328;2023-03-02T21:57:09;2.20;54.80
47576;DHT22;33304;52.456;13.328;2023-03-02T21:59:36;2.20;55.10
47576;DHT22;33304;52.456;13.328;2023-03-02T22:02:04;2.10;55.00
47576;DHT22;33304;52.456;13.328;2023-03-02T22:04:31;2.00;56.20
47576;DHT22;33304;52.456;13.328;2023-03-02T22:06:58;2.10;58.30
47576;DHT22;33304;52.456;13.328;2023-03-02T22:09:25;2.10;57.80
47576;DHT22;33304;52.456;13.328;2023-03-02T22:11:53;2.20;58.60
47576;DHT22;33304;52.456;13.328;2023-03-02T22:14:20;2.20;56.20
47576;DHT22;33304;52.456;13.328;2023-03-02T22:16:47;2.10;57.30
47576;DHT22;33304;52.456;13.328;2023-03-02T22:19:23;2.20;58.10
47576;DHT22;33304;52.456;13.328;2023-03-02T22:21:52;2.10;58.70
47576;DHT22;33304;52.456;13.328;2023-03-02T22:24:21;2.20;58.10
47576;DHT22;33304;52.456;13.328;2023-03-02T22:26:56;2.10;59.10
47576;DHT22;33304;52.456;13.328;2023-03-02T22:29:25;1.80;59.20
47576;DHT22;33304;52.456;13.328;2023-03-02T22:31:54;2.00;63.70
47576;DHT22;33304;52.456;13.328;2023-03-02T22:34:23;2.00;62.30
47576;DHT22;33304;52.456;13.328;2023-03-02T22:36:55;1.90;61.70
47576;DHT22;33304;52.456;13.328;2023-03-02T22:39:27;1.80;63.10
47576;DHT22;33304;52.456;13.328;2023-03-02T22:42:00;1.80;67.40
47576;DHT22;33304;52.456;13.328;2023-03-02T22:44:32;1.70;68.20
47576;DHT22;33304;52.456;13.328;2023-03-02T22:47:00;1.70;72.00
47576;DHT22;33304;52.456;13.328;2023-03-02T22:49:27;1.80;72.60
47576;DHT22;33304;52.456;13.328;2023-03-02T22:51:58;1.90;70.90
47576;DHT22;33304;52.456;13.328;2023-03-02T22:54:31;2.10;70.10
47576;DHT22;33304;52.456;13.328;2023-03-02T22:57:15;2.00;66.00
47576;DHT22;33304;52.456;13.328;2023-03-02T22:59:44;1.90;63.30
47576;DHT22;33304;52.456;13.328;2023-03-02T23:02:14;1.90;62.70
47576;DHT22;33304;52.456;13.328;2023-03-02T23:04:44;1.90;63.60
47576;DHT22;33304;52.456;13.328;2023-03-02T23:07:15;1.80;62.80
47576;DHT22;33304;52.456;13.328;2023-03-02T23:09:43;1.70;63.80
47576;DHT22;33304;52.456;13.328;2023-03-02T23:12:17;1.70;64.50
47576;DHT22;33304;52.456;13.328;2023-03-02T23:14:47;1.70;65.90
47576;DHT22;33304;52.456;13.328;2023-03-02T23:17:17;1.70;65.60
47576;DHT22;33304;52.456;13.328;2023-03-02T23:19:46;1.80;63.10
47576;DHT22;33304;52.456;13.328;2023-03-02T23:22:13;1.60;63.20
47576;DHT22;33304;52.456;13.328;2023-03-02T23:24:40;1.50;64.50
47576;DHT22;33304;52.456;13.328;2023-03-02T23:27:08;1.50;64.30
47576;DHT22;33304;52.456;13.328;2023-03-02T23:29:37;1.60;64.80
47576;DHT22;33304;52.456;13.328;2023-03-02T23:32:04;1.60;64.70
47576;DHT22;33304;52.456;13.328;2023-03-02T23:34:31;1.80;64.80
47576;DHT22;33304;52.456;13.328;2023-03-02T23:36:59;1.80;63.90
47576;DHT22;33304;52.456;13.328;2023-03-02T23:39:26;1.90;59.30
47576;DHT22;33304;52.456;13.328;2023-03-02T23:41:53;1.80;59.90
47576;DHT22;33304;52.456;13.328;2023-03-02T23:44:21;1.60;61.20
47576;DHT22;33304;52.456;13.328;2023-03-02T23:46:49;1.60;62.30
47576;DHT22;33304;52.456;13.328;2023-03-02T23:49:17;1.50;62.20
47576;DHT22;33304;52.456;13.328;2023-03-02T23:51:44;1.50;66.10
47576;DHT22;33304;52.456;13.328;2023-03-02T23:54:12;1.60;65.90
47576;DHT22;33304;52.456;13.328;2023-03-02T23:56:39;1.70;65.60
47576;DHT22;33304;52.456;13.328;2023-03-02T23:59:06;1.80;63.80
